Terminal Aerodrome Forecast
Issued by NWS Sioux Falls, SD

Home | Current Version | Previous Version | Text Only | Print | Product List | Glossary On
Versions: 1 2 3 4 5 6 7 8 9 10 11 12 13 14 15 16
612
FTUS43 KFSD 120520
TAFFSD
TAF
KFSD 120520Z 1206/1306 33008KT P6SM FEW250
     FM121200 29005KT P6SM OVC025
     FM121800 28008KT P6SM BKN060
     FM122300 24006KT P6SM BKN250=

USA.gov is the U.S. government's official web portal to all federal, state and local government web resources and services.